Tiempo atmosférico en la estación meteorológica de Lugo Aeropuerto, Lugo (445 m.)



Fecha
DESCASC
Temp. máxima en grados centígrados (hora)
DESCASC
Temp. mínima en grados centígrados (hora)
DESCASC
Temp. media en grados centígrados
DESCASC
Racha de viento máxima en m/sg (hora)
DESCASC
Velocidad máxima media en intervalos de 10 minutos(hora)
DESCASC
Precipitaciones diarias en mm
DESCASC
Precipitaciones de 00:00 a 06:00 en mm
DESCASC
Precipitaciones de 06:00 a 12:00 en mm
DESCASC
Precipitaciones de 12:00 a 18:00 en mm
DESCASC
Precipitaciones de 18:00 a 24:00 en mm
DESCASC
17-03-2019 10.9 (16:30) 0.8 (23:59) 5.8 10 (02:30) 4.72 (17:40) 2.4 0.4 2 0 0
16-03-2019 23.2 (15:00) -1.2 (08:30) 11 11.67 (16:40) 6.67 (16:40) 0.2 0 0.2 0 0
15-03-2019 17.4 (17:10) -0.8 (07:30) 8.3 4.72 (18:10) 2.5 (18:10) 0 0 0 0 0
14-03-2019 11.3 (16:10) 0.5 (00:00) 5.9 5 (15:50) 2.5 (15:50) 0 0 0 0 0
13-03-2019 10.6 (13:40) 1.6 (00:00) 6.1 10.83 (14:10) 5 (14:10) 1.2 0.4 0.4 0.4 0
12-03-2019 13 (15:10) 0.5 (00:00) 6.8 12.78 (15:50) 7.22 (15:40) 4.2 0 0 2.8 1.4
11-03-2019 18.6 (16:30) 1.1 (00:00) 9.9 7.78 (10:40) 4.17 (10:50) 0 0 0 0 0
10-03-2019 15.1 (14:30) 7.4 (00:00) 11.3 8.33 (03:40) 4.72 (01:10) 0.4 0 0 0.2 0.2
09-03-2019 17.7 (16:20) 8.9 (00:00) 13.3 8.06 (17:10) 4.72 (17:10) 0 0 0 0 0
08-03-2019 13 (15:40) 4.3 (00:00) 8.7 6.94 (15:30) 4.44 (15:50) 0.2 0 0 0 0.2
07-03-2019 11 (13:30) 4 (00:00) 7.5 12.78 (11:50) 5.83 (11:50) 6.4 1.2 0 4.8 0.4
06-03-2019 10.8 (00:20) 4.5 (00:00) 7.7 16.11 (18:00) 7.5 (02:20) 30.2 8.6 7.8 10.2 3.6
05-03-2019 15.2 (13:40) 6.3 (00:00) 10.8 14.72 (14:50) 7.22 (22:40) 24 0 0 0.4 23.6
04-03-2019 11.9 (14:30) 5.7 (00:00) 8.8 13.61 (00:40) 7.22 (00:40) 0 0 0 0 0
03-03-2019 15.9 (13:50) 7.8 (00:00) 11.8 18.33 (16:30) 8.33 (17:10) 2.4 0 0 0 2.4
02-03-2019 18.2 (16:30) 6.8 (00:00) 12.5 8.89 (13:20) 5.28 (12:30) 0 0 0 0 0
01-03-2019 17.4 (16:00) 2.4 (00:00) 9.9 5.83 (17:50) 3.06 (12:30) 0 0 0 0 0
28-02-2019 17 (17:30) 0.4 (00:00) 8.7 4.44 (11:40) 2.5 (10:40) 0 0 0 0 0
27-02-2019 18.3 (14:10) 3.6 (00:00) 10.9 12.5 (15:30) 6.67 (15:30) 0 0 0 0 0
26-02-2019 24 (16:20) 1.1 (00:00) 12.6 9.17 (13:10) 4.17 (13:40) 0 0 0 0 0
25-02-2019 23.1 (15:40) 0.9 (00:00) 12 5.83 (18:50) 3.06 (19:00) 0 0 0 0 0
24-02-2019 21.8 (15:50) 1.4 (00:00) 11.6 4.44 (16:40) 1.67 (00:10) 0 0 0 0 0
23-02-2019 19.5 (16:40) 4.5 (00:00) 12 4.72 (13:40) 2.78 (19:10) 0 0 0 0 0
22-02-2019 21.9 (15:50) 1.7 (00:00) 11.8 8.61 (16:00) 4.72 (16:00) 0 0 0 0 0
21-02-2019 19.4 (16:10) 0.3 (00:00) 9.8 10.56 (13:50) 5.28 (13:50) 0 0 0 0 0
20-02-2019 15.1 (17:00) -2.8 (-00:0) 6.2 7.5 (17:00) 3.61 (16:20) 0 0 0 0 0

Gráficas

Temp. máximas Temp. mínimas Temp. medias Precipitaciones Rachas de viento máximas Velocidades máximas media en intervalos de 10 minutos

Datos horarios

Fecha y hora oficial Temperatura (ºC) Velocidad del viento (km/h) Dirección del viento Racha (km/h) Dirección de racha Precipitación (mm) Presión (hPa) Tendencia (hPa) Humedad (%)
2019-03-21 23:00:00 4.6 2 Sur 5 Noroeste 0 973.3 0.6 88
2019-03-21 22:00:00 6.4 0 Calma 6 Norte 0 973 0.5 86
2019-03-21 21:00:00 7.4 3 Nordeste 21 Nordeste 0 973 0.6 84
2019-03-21 20:00:00 9.1 10 Nordeste 24 Este 0 972.7 0.3 78
2019-03-21 19:00:00 11.3 9 Nordeste 22 Nordeste 0 972.5 -0.6 69
2019-03-21 18:00:00 13.7 9 Nordeste 24 Nordeste 0 972.4 -1.4 62
2019-03-21 17:00:00 15.8 7 Nordeste 24 Nordeste 0 972.4 -2.2 56
2019-03-21 16:00:00 16.1 11 Nordeste 23 Nordeste 0 973.1 -2.3 52
2019-03-21 15:00:00 16.4 9 Nordeste 19 Nordeste 0 973.8 -1.8 40
2019-03-21 14:00:00 15.6 10 Nordeste 20 Noroeste 0 974.6 -1.4 41
2019-03-21 13:00:00 14.4 7 Norte 15 Norte 0 975.4 -0.4 40
2019-03-21 12:00:00 13 5 Norte 14 Norte 0 975.6 -0.3 46
2019-03-21 11:00:00 10.8 4 Nordeste 9 Nordeste 0 976 0 56
2019-03-21 10:00:00 7.7 4 Este 8 Nordeste 0 975.8 0 67
2019-03-21 09:00:00 4.4 0 Calma 6 Sur 0 975.9 0.4 86
2019-03-21 08:00:00 1.1 4 Sudeste 7 Sudeste 0 976 0.6 93
2019-03-21 07:00:00 1.6 3 Sur 5 Sudeste 0 975.8 0.2 95
2019-03-21 06:00:00 1.1 5 Este 8 Nordeste 0 975.5 -0.3 96
2019-03-21 05:00:00 0.7 4 Sudeste 6 Sudeste 0 975.4 -0.5 94
2019-03-21 04:00:00 1.2 0 Calma 5 Este 0 975.6 -0.5 94
2019-03-21 03:00:00 2.2 4 Nordeste 8 Norte 0 975.8 -0.3 96
2019-03-21 02:00:00 1.5 2 Noroeste 8 Sudeste 0 975.9 -0.2 94
2019-03-21 01:00:00 2.9 2 Sudeste 6 Nordeste 0 976.1 0 88
2019-03-21 00:00:00 4.9 2 Norte 9 Nordeste 0 976.1 -0.2 90
2019-03-20 23:00:00 5.2 3 Norte 13 Nordeste 0 976.1 0.1 92
2019-03-20 22:00:00 5.8 2 Nordeste 12 Nordeste 0 976.1 0.3 89
2019-03-20 21:00:00 7.1 3 Noroeste 15 Nordeste 0 976.3 0.9 87
2019-03-20 20:00:00 7.9 6 Nordeste 25 Este 0 976 0.6 85
2019-03-20 19:00:00 9.5 8 Nordeste 28 Nordeste 0 975.8 0.1 77
2019-03-20 18:00:00 11.1 14 Nordeste 37 Este 0 975.4 -0.3 71
2019-03-20 17:00:00 12.7 16 Nordeste 41 Este 0 975.4 -0.9 65
2019-03-20 16:00:00 15.3 6 Nordeste 32 Nordeste 0 975.7 -1.3 60
2019-03-20 15:00:00 15.9 9 Norte 25 Nordeste 0 975.7 -1.9 57
2019-03-20 14:00:00 15 12 Nordeste 29 Nordeste 0 976.3 -1.6 58
2019-03-20 13:00:00 14.3 12 Nordeste 31 Nordeste 0 977 -1 56
2019-03-20 12:00:00 12.5 18 Nordeste 29 Este 0 977.6 -0.3 57
2019-03-20 11:00:00 12 9 Nordeste 30 Este 0 977.9 0.6 61
2019-03-20 10:00:00 9.9 11 Nordeste 25 Este 0 978 0.8 74
2019-03-20 09:00:00 6.5 10 Nordeste 17 Nordeste 0 977.9 1.1 90
2019-03-20 08:00:00 2 0 Calma 8 Este 0 977.3 0.3 95
2019-03-20 07:00:00 1.2 3 Sur 7 Sudeste 0 977.2 0.1 96
2019-03-20 06:00:00 1.5 2 Sudeste 6 Norte 0 976.8 -0.8 95
2019-03-20 05:00:00 1.8 3 Sur 6 Sudeste 0 977 -0.9 93
2019-03-20 04:00:00 2.8 4 Oeste 9 Nordeste 0 977.1 -0.8 92
2019-03-20 03:00:00 4.1 6 Nordeste 12 Nordeste 0 977.6 -0.4 96
2019-03-20 02:00:00 4.4 3 Norte 14 Nordeste 0 977.9 -0.2 90
2019-03-20 01:00:00 5.5 3 Norte 13 Nordeste 0 977.9 -0.1 91
2019-03-20 00:00:00 6.1 3 Norte 12 Norte 0 978 0.3 89
2019-03-19 23:00:00 6.6 4 Noroeste 12 Noroeste 0 978.1 1 88
2019-03-19 22:00:00 6.5 4 Norte 18 Nordeste 0 978 1.5 90
2019-03-19 21:00:00 6.6 5 Nordeste 20 Nordeste 0 977.7 1.3 88
2019-03-19 20:00:00 7.5 6 Nordeste 24 Nordeste 0 977.1 0.5 83
2019-03-19 19:00:00 9.1 11 Nordeste 29 Nordeste 0 976.5 0 75
2019-03-19 18:00:00 9.6 12 Nordeste 32 Nordeste 0 976.4 -0.1 73
2019-03-19 17:00:00 10.2 15 Nordeste 31 Este 0 976.6 -0.5 71
2019-03-19 16:00:00 11.6 9 Nordeste 28 Este 0 976.5 -0.9 69
2019-03-19 15:00:00 11.7 7 Nordeste 23 Norte 0 976.5 -1.2 67
2019-03-19 14:00:00 11.7 13 Nordeste 23 Nordeste 0 977.1 -0.7 60
2019-03-19 13:00:00 11.9 10 Nordeste 32 Este 0 977.4 0.1 58
2019-03-19 12:00:00 11.2 15 Nordeste 32 Este 0 977.7 0.5 60
2019-03-19 11:00:00 8.4 13 Nordeste 31 Nordeste 0 977.8 1 80
2019-03-19 10:00:00 8.3 8 Este 19 Este 0 977.3 1.1 81
2019-03-19 09:00:00 5.1 2 Sudoeste 5 Oeste 0 977.2 0.8 98
2019-03-19 08:00:00 3.1 3 Oeste 8 Noroeste 0 976.8 0.5 97
2019-03-19 07:00:00 2.2 3 Sudeste 6 Sudeste 0 976.2 -0.2 95
2019-03-19 06:00:00 2.5 2 Sur 4 Sudoeste 0 976.4 -0.5 92
2019-03-19 05:00:00 4.1 0 Calma 3 Sudeste 0 976.3 -1 89
2019-03-19 04:00:00 4.4 0 Calma 4 Sudeste 0 976.4 -0.7 91
2019-03-19 03:00:00 4.2 0 Calma 8 Este 0 976.9 -0.9 94
2019-03-19 02:00:00 4.3 2 Nordeste 8 Nordeste 0 977.3 -0.5 91
2019-03-19 01:00:00 5.6 4 Nordeste 15 Nordeste 0 977.1 -0.4 87
2019-03-19 00:00:00 5 3 Norte 12 Nordeste 0 977.8 0.4 94
2019-03-18 23:00:00 3.6 2 Norte 8 Este 0 977.8 0.6 92
2019-03-18 22:00:00 4.5 3 Este 12 Este 0 977.5 1 88
2019-03-18 21:00:00 5.2 4 Nordeste 16 Nordeste 0 977.4 1.5 86
2019-03-18 20:00:00 6.5 5 Nordeste 27 Nordeste 0 977.2 1.5 79
2019-03-18 19:00:00 8.5 12 Nordeste 29 Nordeste 0 976.5 0.9 67
2019-03-18 18:00:00 9.8 10 Nordeste 30 Nordeste 0 975.9 -0.1 64
2019-03-18 17:00:00 11.5 10 Nordeste 27 Nordeste 0 975.7 -0.8 55
2019-03-18 16:00:00 12.6 9 Nordeste 30 Nordeste 0 975.6 -1.3 56
2019-03-18 15:00:00 12.5 10 Nordeste 29 Nordeste 0 976 -1.4 53
2019-03-18 14:00:00 11.7 10 Este 22 Este 0 976.5 -0.9 54
2019-03-18 13:00:00 11.1 10 Nordeste 30 Este 0 976.9 -0.3 57
2019-03-18 12:00:00 10.2 10 Nordeste 21 Nordeste 0 977.4 0.8 63
2019-03-18 11:00:00 8.1 4 Norte 8 Noroeste 0 977.4 1.4 83
2019-03-18 10:00:00 4.3 3 Noroeste 6 Noroeste 0 977.2 1.5 93
2019-03-18 09:00:00 2.1 3 Noroeste 5 Noroeste 0.2 976.6 1.3 96
2019-03-18 08:00:00 0 3 Sur 7 Sur 0 976 0.9 97
2019-03-18 07:00:00 -0.3 2 Norte 5 Noroeste 0 975.7 0.6 95
2019-03-18 06:00:00 0.1 3 Oeste 6 Sudeste 0 975.3 0.1 97
2019-03-18 05:00:00 -1 3 Sudeste 5 Sur 0 975.1 0.1 96
2019-03-18 04:00:00 -1.2 0 Calma 7 Sudeste 0 975.1 -0.1 92
2019-03-18 03:00:00 -1 3 Sudeste 4 Sudeste 0 975.2 -0.3 93
2019-03-18 02:00:00 -0.4 0 Calma 4 Sur 0 975 -0.4 90
2019-03-18 01:00:00 0.1 3 Sur 4 Sur 0 975.2 0 92
2019-03-18 00:00:00 0.8 4 Sudeste 7 Sudeste 0 975.5 0.9 90
2019-03-17 23:00:00 2 0 Calma 8 Sudeste 0 975.4 1.5 86
2019-03-17 22:00:00 2.9 2 Este 8 Nordeste 0 975.2 1.9 84
2019-03-17 21:00:00 4 6 Nordeste 14 Este 0 974.6 2 82
2019-03-17 20:00:00 5.4 7 Nordeste 28 Este 0 973.9 1.6 75
2019-03-17 19:00:00 7.2 8 Nordeste 24 Nordeste 0 973.3 1.2 64
2019-03-17 18:00:00 8.6 12 Nordeste 29 Nordeste 0 972.6 0.5 58
2019-03-17 17:00:00 9.5 12 Nordeste 35 Nordeste 0 972.3 0.1 62
2019-03-17 16:00:00 9.8 14 Nordeste 30 Nordeste 0 972.1 0.3 62
2019-03-17 15:00:00 9.9 8 Nordeste 27 Nordeste 0 972.1 0.6 61
2019-03-17 14:00:00 8.6 8 Nordeste 26 Norte 0 972.2 1.2 75
2019-03-17 13:00:00 9.1 12 Este 22 Nordeste 0 971.8 1.4 72
2019-03-17 12:00:00 8.6 8 Nordeste 20 Nordeste 0 971.5 1.7 78
2019-03-17 11:00:00 8.5 5 Nordeste 14 Nordeste 0 971 2.6 84
2019-03-17 10:00:00 7.4 2 Nordeste 15 Norte 0.2 970.4 2.7 87
2019-03-17 09:00:00 6.4 8 Norte 23 Norte 0.4 969.8 2.5 95
2019-03-17 08:00:00 6.9 4 Noroeste 19 Sudoeste 0.6 968.4 2.3 97
2019-03-17 07:00:00 6.6 9 Sudoeste 18 Sudoeste 0.8 967.7 1.2 95
2019-03-17 06:00:00 6.8 6 Oeste 23 Sudoeste 0 967.3 0.5 93
2019-03-17 05:00:00 6.5 11 Sudoeste 22 Sudoeste 0.4 966.1 -0.8 92
2019-03-17 04:00:00 6.8 9 Sur 31 Sur 0 966.5 -1.1 89
2019-03-17 03:00:00 7.5 15 Sudoeste 36 Sur 0 966.8 -0.8 80
2019-03-17 02:00:00 7.6 8 Sur 30 Sudoeste 0 966.9 0.1 78
2019-03-17 01:00:00 7.4 12 Sudoeste 23 Sudoeste 0 967.6 0.9 80
2019-03-17 00:00:00 6.9 10 Oeste 24 Oeste 0 967.6 0.8 82
2019-03-16 23:00:00 6.4 13 Sudoeste 21 Sudoeste 0 966.8 0.8 82
2019-03-16 22:00:00 6.8 12 Sudoeste 32 Oeste 0 966.7 1.7 82
2019-03-16 21:00:00 8.5 12 Oeste 24 Oeste 0 966.8 2.3 77
2019-03-16 20:00:00 11.7 13 Oeste 26 Oeste 0 966 1.7 66
2019-03-16 19:00:00 16.3 11 Oeste 26 Oeste 0 965 0.5 45
2019-03-16 18:00:00 19.4 15 Oeste 32 Oeste 0 964.5 -0.5 37
2019-03-16 17:00:00 21.8 18 Oeste 42 Oeste 0 964.3 -1.4 28
2019-03-16 16:00:00 22.6 14 Oeste 36 Oeste 0 964.5 -2 34
2019-03-16 15:00:00 22.7 22 Oeste 35 Sudoeste 0 965 -2.3 29
2019-03-16 14:00:00 21.8 21 Sudoeste 39 Oeste 0 965.7 -2.6 28
2019-03-16 13:00:00 19.9 17 Sudoeste 33 Sudoeste 0 966.5 -2.6 29
2019-03-16 12:00:00 11.5 3 Nordeste 8 Noroeste 0 967.3 -1.9 79
2019-03-16 11:00:00 5.1 3 Noroeste 7 Noroeste 0 968.3 -0.9 95
2019-03-16 10:00:00 0.7 3 Este 5 Nordeste 0.2 969.1 -0.2 96
2019-03-16 09:00:00 -0.8 2 Este 4 Este 0 969.2 -0.5 97
2019-03-16 08:00:00 -1 2 Nordeste 3 Norte 0 969.2 -0.6 96
2019-03-16 07:00:00 -0.8 0 Calma 7 Sudeste 0 969.3 -1.2 98
2019-03-16 06:00:00 -0.1 2 Norte 4 Sudeste 0 969.7 -2 97
2019-03-16 05:00:00 0.2 3 Sudeste 6 Sudeste 0 969.8 -2.3 97
2019-03-16 04:00:00 0.8 2 Noroeste 5 Sudeste 0 970.5 -2.2 97
2019-03-16 03:00:00 0.5 3 Sudeste 5 Sudeste 0 971.7 -1.5 96
2019-03-16 02:00:00 0.6 2 Sur 4 Sudeste 0 972.1 -1.1 91
2019-03-16 01:00:00 1.3 3 Sudeste 6 Sur 0 972.7 -0.8 93
2019-03-16 00:00:00 2.3 3 Sur 6 Sudeste 0 973.2 -0.3 91
2019-03-15 23:00:00 3.3 3 Sur 6 Sur 0 973.2 -0.3 88
2019-03-15 22:00:00 5 3 Sur 6 Sudeste 0 973.5 -0.2 86
2019-03-15 21:00:00 7.5 2 Sudeste 5 Sudeste 0 973.5 -0.3 83
2019-03-15 20:00:00 10.7 0 Calma 9 Este 0 973.5 -0.5 76
2019-03-15 19:00:00 13.2 4 Nordeste 17 Nordeste 0 973.7 -0.7 70
2019-03-15 18:00:00 16.2 7 Nordeste 14 Nordeste 0 973.8 -1.1 55
2019-03-15 17:00:00 17.3 5 Nordeste 13 Norte 0 974 -1.5 41
2019-03-15 16:00:00 16.3 5 Nordeste 12 Norte 0 974.4 -2.1 51
2019-03-15 15:00:00 15 5 Norte 13 Noroeste 0 974.9 -2.3 57
2019-03-15 14:00:00 13.6 5 Nordeste 11 Nordeste 0 975.5 -2 60
2019-03-15 13:00:00 11.7 6 Nordeste 12 Noroeste 0 976.5 -0.8 65
2019-03-15 12:00:00 10.3 4 Norte 13 Noroeste 0 977.2 -0.1 71
2019-03-15 11:00:00 9.1 4 Norte 10 Nordeste 0 977.5 0.2 74
2019-03-15 10:00:00 5.9 3 Noroeste 5 Nordeste 0 977.3 0.2 83
2019-03-15 09:00:00 2 2 Este 5 Sudeste 0 977.3 -0.1 91
2019-03-15 08:00:00 -0.8 4 Sudeste 5 Sudeste 0 977.3 -0.3 94
2019-03-15 07:00:00 -0.6 5 Sur 8 Sur 0 977.1 -1 94
2019-03-15 06:00:00 0.3 5 Sudeste 10 Sudeste 0 977.4 -1.2 91
2019-03-15 05:00:00 1.4 5 Sudeste 11 Sudeste 0 977.6 -1.4 92
2019-03-15 04:00:00 3.3 5 Sudeste 8 Sur 0 978.1 -1.2 89
2019-03-15 03:00:00 4.9 2 Sudeste 7 Sudeste 0 978.6 -1.1 90
2019-03-15 02:00:00 5 3 Sur 7 Sudeste 0 979 -0.8 91
2019-03-15 01:00:00 4.9 3 Sudeste 6 Sudeste 0 979.3 -0.2 91
2019-03-15 00:00:00 5.1 5 Sudeste 8 Sudeste 0 979.7 0.3 90
2019-03-14 23:00:00 5.9 3 Sur 6 Sudeste 0 979.8 0.6 88
2019-03-14 22:00:00 6.4 2 Sur 4 Sudeste 0 979.5 0.6 86
2019-03-14 21:00:00 7.2 3 Sur 4 Norte 0 979.4 0.5 82
2019-03-14 20:00:00 8.3 4 Noroeste 9 Noroeste 0 979.2 0.1 76
2019-03-14 19:00:00 9.9 3 Norte 8 Norte 0 978.9 -0.4 68
2019-03-14 18:00:00 10.1 5 Noroeste 12 Norte 0 978.9 -0.6 67
2019-03-14 17:00:00 10.3 5 Norte 18 Noroeste 0 979.1 -1.2 66
2019-03-14 16:00:00 11.1 8 Noroeste 18 Noroeste 0 979.3 -1.5 67
2019-03-14 15:00:00 10.9 5 Noroeste 14 Noroeste 0 979.5 -1.8 65
2019-03-14 14:00:00 10.1 5 Oeste 17 Oeste 0 980.3 -1.1 64
2019-03-14 13:00:00 9 6 Noroeste 13 Oeste 0 980.8 -0.6 67
2019-03-14 12:00:00 8.1 5 Norte 13 Nordeste 0 981.3 0.4 68
2019-03-14 11:00:00 7.1 3 Sur 6 Noroeste 0 981.4 0.9 71
2019-03-14 10:00:00 5.3 4 Noroeste 8 Noroeste 0 981.4 1 90
2019-03-14 09:00:00 4.2 3 Sur 6 Sur 0 980.9 0.1 97
2019-03-14 08:00:00 2.7 2 Sudeste 8 Sudeste 0 980.5 -0.4 97
2019-03-14 07:00:00 1.7 3 Sur 8 Sur 0 980.4 -0.8 98
2019-03-14 06:00:00 0.8 4 Sudeste 6 Sudeste 0 980.8 -1 97
2019-03-14 05:00:00 0.8 2 Sudeste 8 Sur 0 980.9 -1 97
2019-03-14 04:00:00 1.3 2 Sudoeste 7 Sudeste 0 981.2 -0.8 91
2019-03-14 03:00:00 2.3 4 Sudeste 9 Sudeste 0 981.8 -0.5 92
2019-03-14 02:00:00 3.7 3 Sudeste 4 Sudeste 0 981.9 -0.4 91
2019-03-14 01:00:00 4.3 3 Sudeste 7 Sudeste 0 982 -0.2 92
2019-03-14 00:00:00 4.8 2 Sur 6 Sudeste 0 982.3 0.5 91
2019-03-13 23:00:00 5.3 0 Calma 4 Sur 0 982.3 0.8 91
2019-03-13 22:00:00 5.5 2 Oeste 5 Oeste 0 982.2 1.5 89
2019-03-13 21:00:00 6.1 2 Sudeste 13 Este 0 981.8 1.2 86
2019-03-13 20:00:00 6.9 0 Calma 8 Este 0 981.5 1.1 84
2019-03-13 19:00:00 8.1 6 Este 20 Nordeste 0 980.7 0.3 75
2019-03-13 18:00:00 8.7 8 Nordeste 28 Nordeste 0 980.6 0.5 75
2019-03-13 17:00:00 9.4 5 Nordeste 13 Nordeste 0 980.4 0.1 75
2019-03-13 16:00:00 8 4 Norte 23 Nordeste 0.4 980.4 -0.2 82
2019-03-13 15:00:00 10.1 10 Este 39 Norte 0 980.1 -0.3 62
2019-03-13 14:00:00 10.4 10 Noroeste 25 Norte 0 980.3 0.2 70
2019-03-13 13:00:00 9.7 7 Norte 24 Norte 0 980.6 1.1 74
2019-03-13 12:00:00 7.8 7 Norte 20 Nordeste 0 980.4 1.5 79
2019-03-13 11:00:00 6.6 2 Nordeste 12 Sudoeste 0 980.1 1.6 90
2019-03-13 10:00:00 5.2 7 Sudoeste 12 Sudoeste 0.2 979.5 1.4 93
2019-03-13 09:00:00 3.8 3 Sur 9 Nordeste 0 978.9 0.9 97
2019-03-13 08:00:00 3.1 2 Sudeste 8 Sudoeste 0 978.5 0.9 97
2019-03-13 07:00:00 2.8 3 Sur 6 Sudoeste 0.2 978.1 0.3 97
2019-03-13 06:00:00 2.8 2 Sur 5 Sur 0.2 978 0 98
2019-03-13 05:00:00 2.4 3 Sudeste 6 Sur 0 977.6 -0.1 97
2019-03-13 04:00:00 2.2 3 Sur 8 Este 0.2 977.8 0.1 97
2019-03-13 03:00:00 1.7 3 Sur 5 Sur 0 978 0.3 97
2019-03-13 02:00:00 2 4 Sur 8 Sudeste 0 977.7 0 96
2019-03-13 01:00:00 2.2 2 Sur 6 Sudeste 0 977.7 0.5 96
2019-03-13 00:00:00 2.9 4 Sudeste 7 Sudeste 0 977.7 1.1 96
2019-03-12 23:00:00 2.9 2 Sur 8 Sudeste 0 977.7 1.8 92
2019-03-12 22:00:00 4.6 2 Norte 11 Noroeste 0 977.2 2.4 92
2019-03-12 21:00:00 5.8 3 Noroeste 11 Noroeste 0 976.6 2.5 94
2019-03-12 20:00:00 6 8 Noroeste 21 Noroeste 0.2 975.9 2.4 93
2019-03-12 19:00:00 6.7 6 Noroeste 26 Noroeste 1.2 974.8 2.5 96
2019-03-12 18:00:00 8.1 10 Noroeste 22 Noroeste 1.2 974.1 1.7 93
2019-03-12 17:00:00 9.2 12 Noroeste 32 Sudoeste 1.6 973.5 0.2 91
2019-03-12 16:00:00 12.6 23 Oeste 46 Sudoeste 0 972.3 -1.3 73
2019-03-12 15:00:00 12.7 25 Sudoeste 42 Oeste 0 972.4 -1.3 73
2019-03-12 14:00:00 11.8 19 Sudoeste 36 Sudoeste 0 973.3 -0.2 78
2019-03-12 13:00:00 11.6 20 Sudoeste 40 Oeste 0 973.6 0 75
2019-03-12 12:00:00 10.3 14 Oeste 27 Sudoeste 0 973.7 0.3 86
2019-03-12 11:00:00 10.3 12 Sudoeste 28 Sudoeste 0 973.5 0.5 76
2019-03-12 10:00:00 10.1 14 Oeste 25 Sudoeste 0 973.6 0.5 66
2019-03-12 09:00:00 6.3 8 Sudoeste 15 Sudoeste 0 973.4 0.4 87
2019-03-12 08:00:00 0.9 3 Sur 6 Sur 0 973 -0.2 94
2019-03-12 07:00:00 0.8 2 Noroeste 5 Oeste 0 973.1 -1.1 94
2019-03-12 06:00:00 1.2 4 Norte 12 Sudoeste 0 973 -1.9 95
2019-03-12 05:00:00 1.8 2 Sudeste 4 Sudeste 0 973.2 -2.1 93
2019-03-12 04:00:00 2.3 0 Calma 7 Noroeste 0 974.2 -1.6 91
2019-03-12 03:00:00 3 3 Oeste 5 Oeste 0 974.9 -1.3 94
2019-03-12 02:00:00 3.5 4 Sudeste 6 Sudeste 0 975.3 -1 91
2019-03-12 01:00:00 4.1 2 Sur 5 Sudeste 0 975.8 -0.5 91
2019-03-12 00:00:00 4.8 3 Sur 5 Sur 0 976.2 -0.4 88
2019-03-11 23:00:00 5.7 3 Sudeste 7 Sur 0 976.3 0.2 89
2019-03-11 22:00:00 7.3 4 Sudeste 7 Sudeste 0 976.3 0.1 81
2019-03-11 21:00:00 8.9 3 Sur 5 Oeste 0 976.6 0.2 78
2019-03-11 20:00:00 12.6 3 Sudeste 5 Nordeste 0 976.1 -0.6 63
2019-03-11 19:00:00 16 3 Nordeste 8 Noroeste 0 976.2 -0.7 49
2019-03-11 18:00:00 17.6 4 Noroeste 10 Oeste 0 976.4 -1.4 40
2019-03-11 17:00:00 18 5 Norte 14 Noroeste 0 976.7 -1.9 42
2019-03-11 16:00:00 18 5 Noroeste 12 Nordeste 0 976.9 -2.3 38
2019-03-11 15:00:00 16.9 5 Noroeste 12 Noroeste 0 977.8 -2.2 48
2019-03-11 14:00:00 15.4 4 Norte 13 Noroeste 0 978.6 -1.8 53
2019-03-11 13:00:00 13.7 4 Este 16 Nordeste 0 979.2 -1.7 58
2019-03-11 12:00:00 11.7 9 Este 22 Nordeste 0 980 -0.9 60
2019-03-11 11:00:00 9.8 14 Nordeste 28 Este 0 980.4 0.1 69
2019-03-11 10:00:00 7.8 9 Nordeste 18 Este 0 980.9 0.6 77
2019-03-11 09:00:00 3.6 3 Sudeste 7 Sudeste 0 980.9 0.1 94
2019-03-11 08:00:00 1.2 4 Sudeste 8 Sudeste 0 980.3 0 95
2019-03-11 07:00:00 1.6 4 Sudeste 8 Sudeste 0 980.3 -0.3 95
2019-03-11 06:00:00 2.3 5 Sudeste 6 Sudeste 0 980.8 -0.2 95
2019-03-11 05:00:00 3.3 2 Sudoeste 5 Este 0 980.3 -0.5 91
2019-03-11 04:00:00 4.8 5 Este 9 Este 0 980.6 -0.4 93
2019-03-11 03:00:00 4.5 3 Sudeste 9 Norte 0 981 0.2 94
2019-03-11 02:00:00 6.6 3 Noroeste 5 Noroeste 0 980.8 0 90
2019-03-11 01:00:00 7.2 2 Norte 6 Este 0 981 0.7 90
2019-03-11 00:00:00 7.4 5 Nordeste 16 Nordeste 0 980.8 1 91
2019-03-10 23:00:00 7.9 6 Nordeste 18 Nordeste 0.2 980.8 1.2 94
2019-03-10 22:00:00 8.1 5 Nordeste 18 Nordeste 0 980.3 0.9 95
2019-03-10 21:00:00 8.7 3 Nordeste 18 Nordeste 0 979.8 0.8 95
2019-03-10 20:00:00 9.1 6 Nordeste 14 Este 0 979.6 0.6 94
2019-03-10 19:00:00 9.8 9 Este 22 Nordeste 0 979.4 0.3 92
2019-03-10 18:00:00 12.6 10 Noroeste 21 Norte 0.2 979 -0.5 85
2019-03-10 17:00:00 14.5 5 Oeste 14 Sudoeste 0 979 -0.9 75
2019-03-10 16:00:00 14.4 6 Noroeste 16 Noroeste 0 979.1 -1 77
2019-03-10 15:00:00 13.8 6 Noroeste 23 Sudoeste 0 979.5 -0.4 84
2019-03-10 14:00:00 13.7 11 Oeste 18 Sudoeste 0 979.9 -0.2 82
2019-03-10 13:00:00 12.8 9 Sudoeste 21 Sudoeste 0 980.1 0.3 86
2019-03-10 12:00:00 12.6 12 Sudoeste 24 Sudoeste 0 979.9 0.4 84
2019-03-10 11:00:00 12.2 9 Sudoeste 22 Sur 0 980.1 1.2 83
2019-03-10 10:00:00 11 9 Sudoeste 23 Sudoeste 0 979.8 0.9 85
2019-03-10 09:00:00 10.1 11 Sur 26 Sur 0 979.5 0.7 88
2019-03-10 08:00:00 9.8 11 Sur 26 Sudoeste 0 978.9 0.4 92
2019-03-10 07:00:00 9.6 10 Sudoeste 18 Sudoeste 0 978.9 0.4 94
2019-03-10 06:00:00 9.6 8 Sudoeste 21 Sudoeste 0 978.8 0.6 94
2019-03-10 05:00:00 9.8 11 Sudoeste 27 Oeste 0 978.5 0.3 92
2019-03-10 04:00:00 10.3 16 Oeste 30 Oeste 0 978.5 -0.2 89
2019-03-10 03:00:00 11 13 Oeste 28 Oeste 0 978.2 -0.8 85
2019-03-10 02:00:00 11.2 15 Sudoeste 27 Oeste 0 978.2 -0.7 84
2019-03-10 01:00:00 11.3 14 Oeste 25 Sudoeste 0 978.7 0 87
2019-03-10 00:00:00 11.3 13 Oeste 24 Sudoeste 0 979 0.3 87
2019-03-09 23:00:00 11.6 12 Oeste 22 Oeste 0 978.9 0.3 86
2019-03-09 22:00:00 11.8 8 Oeste 23 Oeste 0 978.7 0.6 86
2019-03-09 21:00:00 12.1 10 Oeste 21 Oeste 0 978.7 0.8 85
2019-03-09 20:00:00 12.5 7 Oeste 18 Sudoeste 0 978.6 1 82
2019-03-09 19:00:00 13.8 4 Oeste 16 Oeste 0 978.1 0.5 79
2019-03-09 18:00:00 15.1 8 Oeste 29 Sudoeste 0 977.9 0.1 75
2019-03-09 17:00:00 17.4 13 Oeste 27 Oeste 0 977.6 -1 66
2019-03-09 16:00:00 17.3 13 Sudoeste 25 Oeste 0 977.6 -1.4 67
2019-03-09 15:00:00 16.8 12 Sudoeste 24 Sudoeste 0 977.8 -1.3 66
2019-03-09 14:00:00 16.1 10 Sudoeste 24 Oeste 0 978.6 -0.5 70
2019-03-09 13:00:00 14.9 12 Sudoeste 25 Sudoeste 0 979 -0.1 76
2019-03-09 12:00:00 13.6 13 Sudoeste 26 Sudoeste 0 979.1 0.3 80
2019-03-09 11:00:00 11.9 10 Sur 22 Sur 0 979.1 0.8 86
2019-03-09 10:00:00 10.5 9 Sur 21 Sur 0 979.1 1.1 90
2019-03-09 09:00:00 10 9 Sur 19 Sur 0 978.8 1.3 90
2019-03-09 08:00:00 9.7 6 Sur 15 Sur 0 978.3 1.4 91
2019-03-09 07:00:00 9.5 8 Sudoeste 17 Sur 0 978 1.4 91
2019-03-09 06:00:00 9.7 3 Sur 11 Sudoeste 0 977.5 0.7 89
2019-03-09 05:00:00 9.7 4 Sur 17 Sur 0 976.9 0.1 89
2019-03-09 04:00:00 9.6 6 Sudoeste 20 Sur 0 976.6 -0.1 89
2019-03-09 03:00:00 9.5 4 Sur 15 Sur 0 976.8 0.5 90
2019-03-09 02:00:00 9.4 7 Sudoeste 16 Sur 0 976.8 0.6 90
2019-03-09 01:00:00 9 6 Sur 13 Oeste 0 976.7 0.6 90
2019-03-09 00:00:00 8.9 5 Sur 17 Sur 0 976.3 1 91
2019-03-08 23:00:00 8.6 6 Sur 13 Sur 0.2 976.2 2.1 92
2019-03-08 22:00:00 9 6 Sudoeste 19 Sudoeste 0 976.1 2.5 91
2019-03-08 21:00:00 10 7 Sudoeste 17 Sudoeste 0 975.3 2.2 78
2019-03-08 20:00:00 10.3 7 Sudoeste 14 Sudoeste 0 974.1 1.3 75
2019-03-08 19:00:00 10.9 6 Oeste 17 Sudoeste 0 973.6 0.6 73
2019-03-08 18:00:00 11.6 11 Oeste 18 Oeste 0 973.1 0.5 68
2019-03-08 17:00:00 11.8 12 Oeste 22 Sudoeste 0 972.8 0.2 65
2019-03-08 16:00:00 12.6 13 Oeste 25 Sudoeste 0 973 0.2 60
2019-03-08 15:00:00 12 12 Sudoeste 24 Sudoeste 0 972.6 -0.4 62
2019-03-08 14:00:00 11.5 11 Sur 22 Oeste 0 972.6 -0.4 65
2019-03-08 13:00:00 10.5 11 Sudoeste 18 Oeste 0 972.8 0.3 68
2019-03-08 12:00:00 10.1 8 Sudoeste 16 Sudoeste 0 973 1.2 70
2019-03-08 11:00:00 8.7 4 Sudoeste 10 Sudoeste 0 973 2.4 80
2019-03-08 10:00:00 7 5 Sudoeste 8 Sudoeste 0 972.5 2.4 92
2019-03-08 09:00:00 5.6 0 Calma 4 Sudeste 0 971.8 3.1 97
2019-03-08 08:00:00 4.4 3 Sur 5 Oeste 0 970.6 2.8 95
2019-03-08 07:00:00 4.8 0 Calma 6 Sudoeste 0 970.1 2.2 95
2019-03-08 06:00:00 6 0 Calma 4 Sudeste 0 968.7 0.8 94
2019-03-08 05:00:00 6.3 0 Calma 5 Sudeste 0 967.8 0.5 96
2019-03-08 04:00:00 6.7 2 Oeste 4 Oeste 0 967.9 1.3 94
2019-03-08 03:00:00 7.4 0 Calma 6 Norte 0 967.9 2.5 95
2019-03-08 02:00:00 7.3 3 Noroeste 13 Norte 0 967.3 2.7 95
2019-03-08 01:00:00 7.4 4 Nordeste 19 Nordeste 0 966.6 3.4 95
2019-03-08 00:00:00 7.5 9 Oeste 18 Sudoeste 0 965.4 2.8 93
2019-03-07 23:00:00 7.5 8 Sudoeste 13 Sudoeste 0 964.6 3.4 92
2019-03-07 22:00:00 7.5 5 Sudoeste 14 Sudoeste 0 963.2 2.9 92
2019-03-07 21:00:00 7.2 6 Sudoeste 16 Sudoeste 0 962.6 2.9 91
2019-03-07 20:00:00 7.6 7 Sudoeste 18 Sur 0 961.2 2.3 90
2019-03-07 19:00:00 7.9 9 Sur 19 Sudoeste 0.4 960.3 2.5 90
2019-03-07 18:00:00 8 12 Sudoeste 29 Oeste 1.4 959.7 1.2 90
2019-03-07 17:00:00 9.1 16 Sudoeste 33 Sur 0 958.9 -0.1 84
2019-03-07 16:00:00 9.3 13 Sur 31 Sur 0.2 957.8 -1.3 82
2019-03-07 15:00:00 7.4 10 Sur 32 Sudoeste 3.2 958.5 -1.5 89
2019-03-07 14:00:00 10.1 19 Sudoeste 42 Sur 0 959 -1.6 70
2019-03-07 13:00:00 8.9 15 Sur 39 Sur 0 959.1 -1.6 75
2019-03-07 12:00:00 7.8 17 Sudoeste 46 Sur 0 960 -0.8 80
2019-03-07 11:00:00 8.5 16 Sudoeste 34 Sudoeste 0 960.6 0.2 79
2019-03-07 10:00:00 7.4 10 Sur 29 Sur 0 960.7 0.2 84
2019-03-07 09:00:00 5.2 13 Sudoeste 22 Sudoeste 0 960.8 0.4 91
2019-03-07 08:00:00 4.8 12 Sudoeste 24 Sur 0 960.4 -0.1 90
2019-03-07 07:00:00 4.8 13 Sur 25 Sur 0 960.5 -0.4 89
2019-03-07 06:00:00 4.4 12 Sudoeste 27 Sudoeste 0 960.4 -0.5 90
2019-03-07 05:00:00 4.4 11 Sudoeste 24 Sur 0 960.5 -0.5 88
2019-03-07 04:00:00 4.2 12 Sudoeste 26 Sur 0 960.9 0.1 89
2019-03-07 03:00:00 4.3 9 Sudoeste 21 Sudoeste 0 960.9 0.3 88
2019-03-07 02:00:00 4.8 10 Sudoeste 18 Sudoeste 0 961 1.2 93
2019-03-07 01:00:00 4.4 8 Sudoeste 15 Sudoeste 1.2 960.8 1.6 93
2019-03-07 00:00:00 5 11 Sudoeste 28 Sudoeste 0.4 960.6 2.9 91
2019-03-06 23:00:00 4.5 6 Sudoeste 17 Oeste 0.2 959.8 3.7 93
2019-03-06 22:00:00 5.3 6 Oeste 20 Oeste 1.8 959.2 5.2 95
2019-03-06 21:00:00 5.5 8 Oeste 21 Oeste 0 957.7 6 92
2019-03-06 20:00:00 6.3 9 Oeste 22 Noroeste 0.2 956.1 7.1 91
2019-03-06 19:00:00 6 7 Noroeste 26 Oeste 1 954 7.3 93
2019-03-06 18:00:00 6.5 18 Noroeste 58 Noroeste 2.4 951.7 6 92
2019-03-06 17:00:00 7.3 16 Oeste 56 Sudoeste 1.4 949 3.5 93
2019-03-06 16:00:00 6.8 18 Sudoeste 49 Sudoeste 4.4 946.7 0.5 93
2019-03-06 15:00:00 7.1 21 Sudoeste 54 Sudoeste 1.8 945.7 -1 89
2019-03-06 14:00:00 9.3 20 Sudoeste 40 Sudoeste 0.2 945.5 -1.2 77
2019-03-06 13:00:00 8.6 20 Sudoeste 39 Sudoeste 0 946.2 -0.3 82
2019-03-06 12:00:00 7.6 15 Sudoeste 32 Sudoeste 0 946.7 1.4 85
2019-03-06 11:00:00 6.6 13 Sudoeste 32 Oeste 0.4 946.7 1.7 91
2019-03-06 10:00:00 6.9 13 Sudoeste 28 Oeste 1.8 946.5 2 90
2019-03-06 09:00:00 7.3 8 Sudoeste 34 Oeste 2.2 945.3 0.2 93
2019-03-06 08:00:00 8.2 14 Sudoeste 31 Sudoeste 3.2 945 -1 92
2019-03-06 07:00:00 8.5 9 Sur 37 Sudoeste 0.2 944.5 -1.9 92
2019-03-06 06:00:00 8.4 15 Sudoeste 43 Sur 1.4 945.1 -2.1 89
2019-03-06 05:00:00 8.8 21 Sudoeste 45 Sudoeste 2.2 946 -1.7 86
2019-03-06 04:00:00 9.3 17 Sur 41 Sur 0 946.4 -2.2 85
2019-03-06 03:00:00 9.3 18 Sur 56 Sur 1.8 947.2 -1.8 89
2019-03-06 02:00:00 10.2 18 Sudoeste 42 Sur 1.6 947.7 -2.3 87
2019-03-06 01:00:00 10.8 22 Sudoeste 48 Sudoeste 1.6 948.6 -1.2 92
2019-03-06 00:00:00 10.5 14 Sudoeste 36 Sudoeste 8.2 949 -1.2 94
2019-03-05 23:00:00 10.3 15 Sudoeste 43 Oeste 6.4 950 -1.1 91
2019-03-05 22:00:00 11.8 14 Sudoeste 34 Sur 1.6 949.8 -1.7 89
2019-03-05 21:00:00 11.6 11 Sur 38 Sudoeste 0.8 950.2 -2.3 91
2019-03-05 20:00:00 10.8 14 Sur 34 Sudoeste 2 951.1 -2.1 92
2019-03-05 19:00:00 10.6 13 Sur 33 Sudoeste 4.6 951.5 -2.5 90
2019-03-05 18:00:00 11.5 14 Sur 43 Sur 0.4 952.5 -3 83
2019-03-05 17:00:00 13.4 13 Sur 40 Sudoeste 0 953.2 -3.6 71
2019-03-05 16:00:00 14.2 17 Sur 48 Sudoeste 0 954 -4 60
2019-03-05 15:00:00 14.5 18 Sudoeste 53 Sudoeste 0 955.5 -3 57
2019-03-05 14:00:00 14.6 21 Sudoeste 48 Sur 0 956.8 -3.2 55
2019-03-05 13:00:00 14.3 18 Sudoeste 46 Sudoeste 0 958 -2.1 56
2019-03-05 12:00:00 13.4 18 Sudoeste 41 Sur 0 958.5 -2.2 58
2019-03-05 11:00:00 10.5 13 Sudoeste 31 Sur 0 960 -1 67
2019-03-05 10:00:00 10.2 15 Sur 36 Sur 0 960.1 -1.5 66
2019-03-05 09:00:00 8.4 12 Sudoeste 27 Sur 0 960.7 -1.2 72
2019-03-05 08:00:00 7.1 12 Sudoeste 24 Sur 0 961 -1.6 76
2019-03-05 07:00:00 7.5 10 Sudoeste 25 Sur 0 961.6 -1.9 75
2019-03-05 06:00:00 7.6 9 Sur 23 Sur 0 961.9 -2.3 75
2019-03-05 05:00:00 7.2 8 Sur 24 Sur 0 962.6 -2.5 77
2019-03-05 04:00:00 7.6 8 Sur 19 Sur 0 963.5 -1.6 79
2019-03-05 03:00:00 7 6 Sur 17 Sur 0 964.2 -1 82
2019-03-05 02:00:00 6.8 6 Sur 14 Sur 0 965.1 -0.7 84
2019-03-05 01:00:00 6.4 7 Sur 18 Sur 0 965.1 -0.9 85
2019-03-05 00:00:00 7.3 9 Sur 23 Sudoeste 0 965.2 -0.9 80
2019-03-04 23:00:00 7.7 11 Sudoeste 21 Sudoeste 0 965.8 -0.2 77
2019-03-04 22:00:00 7.7 12 Sudoeste 23 Sudoeste 0 966 0 72
2019-03-04 21:00:00 7.5 7 Sudoeste 19 Sudoeste 0 966.1 0.3 78
2019-03-04 20:00:00 8 11 Sudoeste 29 Oeste 0 966 -0.2 75
2019-03-04 19:00:00 9.1 13 Sudoeste 29 Oeste 0 966 -0.3 70
2019-03-04 18:00:00 10.1 20 Sudoeste 33 Oeste 0 965.8 -0.6 58
2019-03-04 17:00:00 9.7 12 Oeste 28 Oeste 0 966.2 -0.7 73
2019-03-04 16:00:00 10.9 14 Sudoeste 43 Oeste 0 966.3 -0.8 63
2019-03-04 15:00:00 11.8 22 Oeste 39 Oeste 0 966.4 -0.7 54
2019-03-04 14:00:00 11.4 24 Sudoeste 40 Oeste 0 966.9 -0.3 54
2019-03-04 13:00:00 10.7 20 Oeste 40 Sudoeste 0 967.1 -0.1 62
2019-03-04 12:00:00 10.4 23 Sudoeste 41 Oeste 0 967.1 0.3 61
2019-03-04 11:00:00 8.7 18 Sudoeste 33 Sudoeste 0 967.2 1.1 71
2019-03-04 10:00:00 8.1 13 Sudoeste 23 Sudoeste 0 967.2 1.4 75
2019-03-04 09:00:00 6.3 12 Sudoeste 26 Sudoeste 0 966.8 1.4 81
2019-03-04 08:00:00 5.8 13 Sudoeste 29 Sudoeste 0 966.1 1.2 80
2019-03-04 07:00:00 6.1 13 Sudoeste 30 Sudoeste 0 965.8 1.4 82
2019-03-04 06:00:00 6.6 12 Sudoeste 24 Sudoeste 0 965.4 0.9 83
2019-03-04 05:00:00 6.3 10 Sudoeste 42 Oeste 0 964.9 0.6 84
2019-03-04 04:00:00 7.5 17 Oeste 32 Oeste 0 964.4 0.9 86
2019-03-04 03:00:00 7.5 11 Sudoeste 29 Oeste 0 964.5 1.3 83
2019-03-04 02:00:00 8.6 17 Sudoeste 40 Oeste 0 964.3 1.9 80
2019-03-04 01:00:00 9.8 18 Sudoeste 49 Oeste 0 963.5 2 79
2019-03-04 00:00:00 10.3 18 Sudoeste 41 Sudoeste 0 963.2 3.1 82
2019-03-03 23:00:00 10.5 27 Oeste 46 Oeste 0 962.4 2.4 88
2019-03-03 22:00:00 10.3 24 Sudoeste 50 Oeste 1.2 961.5 1.1 87
2019-03-03 21:00:00 11.6 23 Sudoeste 49 Sudoeste 0.2 960.1 -0.7 91
2019-03-03 20:00:00 11.8 25 Sudoeste 48 Sudoeste 0.6 960 -1.4 88
2019-03-03 19:00:00 12.5 24 Sudoeste 54 Sudoeste 0.4 960.4 -1.9 82
2019-03-03 18:00:00 13.2 26 Sudoeste 60 Sudoeste 0 960.8 -2.2 75
2019-03-03 17:00:00 13.8 28 Sudoeste 66 Sudoeste 0 961.4 -2.9 68
2019-03-03 16:00:00 14.4 28 Sudoeste 57 Sudoeste 0 962.3 -2.8 64
2019-03-03 15:00:00 15.8 25 Sudoeste 56 Oeste 0 963 -3.4 58
2019-03-03 14:00:00 15.4 29 Sudoeste 55 Sudoeste 0 964.3 -2.5 55
2019-03-03 13:00:00 15.1 28 Sudoeste 50 Sudoeste 0 965.1 -1.7 56
2019-03-03 12:00:00 12.8 19 Sudoeste 46 Sudoeste 0 966.4 -0.4 63
2019-03-03 11:00:00 12.8 20 Sudoeste 48 Sudoeste 0 966.8 -0.5 64
2019-03-03 10:00:00 10.7 27 Sudoeste 55 Sudoeste 0 966.8 -1.1 72
2019-03-03 09:00:00 9.7 25 Sudoeste 50 Sudoeste 0 966.8 -0.9 77
2019-03-03 08:00:00 9 13 Sur 31 Sur 0 967.3 -1.4 80
2019-03-03 07:00:00 8.9 14 Sudoeste 33 Sudoeste 0 967.9 -1.3 81
2019-03-03 06:00:00 8.9 15 Sur 30 Sudoeste 0 967.7 -1.3 82
2019-03-03 05:00:00 8.4 8 Sudoeste 20 Sudoeste 0 968.7 -1.3 88
2019-03-03 04:00:00 8.1 6 Sudoeste 18 Sudoeste 0 969.2 -1 88
2019-03-03 03:00:00 7.9 6 Sur 14 Sudoeste 0 969 -1.3 89
2019-03-03 02:00:00 8.7 6 Sudoeste 19 Sudoeste 0 970 -0.8 85
2019-03-03 01:00:00 9.4 11 Sudoeste 22 Sudoeste 0 970.2 -1.2 84
2019-03-03 00:00:00 9.7 11 Sudoeste 23 Sudoeste 0 970.3 -1.3 85
2019-03-02 23:00:00 10.1 14 Sudoeste 26 Sudoeste 0 970.8 -1 84
2019-03-02 22:00:00 10.3 10 Sudoeste 22 Sudoeste 0 971.4 0.3 84
2019-03-02 21:00:00 11 10 Sudoeste 18 Sudoeste 0 971.6 0.2 80
2019-03-02 20:00:00 12.3 8 Oeste 17 Oeste 0 971.8 0.2 66
2019-03-02 19:00:00 15.2 6 Oeste 28 Sudoeste 0 971.1 -1.1 56
2019-03-02 18:00:00 17 13 Sudoeste 27 Oeste 0 971.4 -1.4 52
2019-03-02 17:00:00 17.8 15 Oeste 30 Sudoeste 0 971.6 -2.2 50
2019-03-02 16:00:00 17.6 14 Sudoeste 27 Sudoeste 0 972.2 -2.6 55
2019-03-02 15:00:00 17.1 13 Sudoeste 30 Sudoeste 0 972.8 -2.2 55
2019-03-02 14:00:00 16.8 13 Oeste 32 Oeste 0 973.8 -1.8 56
2019-03-02 13:00:00 15.1 16 Sudoeste 29 Sudoeste 0 974.8 -0.3 63
2019-03-02 12:00:00 13.4 9 Sudoeste 25 Sudoeste 0 975 0.2 72
2019-03-02 11:00:00 10.9 15 Sudoeste 24 Sudoeste 0 975.6 1.5 81
2019-03-02 10:00:00 9.4 13 Sudoeste 28 Sudoeste 0 975.1 1.2 89
2019-03-02 09:00:00 7.7 13 Sudoeste 26 Sudoeste 0 974.8 0.6 95
2019-03-02 08:00:00 7.7 5 Sur 16 Sur 0 974.1 -0.6 91
2019-03-02 07:00:00 8.4 8 Sur 21 Sudoeste 0 973.9 -1.1 90
2019-03-02 06:00:00 7.7 8 Sur 19 Sur 0 974.2 -1 97
2019-03-02 05:00:00 7.2 5 Sudoeste 10 Sudoeste 0 974.7 -0.3 92
2019-03-02 04:00:00 8.6 6 Sudoeste 13 Sudoeste 0 975 -0.3 91
2019-03-02 03:00:00 9.5 8 Sudoeste 14 Sudoeste 0 975.2 -0.2 90
2019-03-02 02:00:00 9.7 6 Sudoeste 18 Sudoeste 0 975 -0.4 89
2019-03-02 01:00:00 10.7 7 Sudoeste 14 Sur 0 975.3 0.5 87
2019-03-02 00:00:00 10.8 6 Sudoeste 12 Sur 0 975.4 1.1 86
2019-03-01 23:00:00 11 8 Sudoeste 18 Sudoeste 0 975.4 1.8 84
2019-03-01 22:00:00 11.5 5 Sudoeste 16 Sudoeste 0 974.8 1.5 82
2019-03-01 21:00:00 12.2 8 Oeste 17 Sudoeste 0 974.3 1.2 78
2019-03-01 20:00:00 12.9 8 Oeste 14 Oeste 0 973.6 0.6 75
2019-03-01 19:00:00 14.1 6 Sudoeste 14 Oeste 0 973.3 0.8 70
2019-03-01 18:00:00 15 5 Oeste 21 Oeste 0 973.1 -0.1 66
2019-03-01 17:00:00 15.8 5 Noroeste 17 Norte 0 973 -0.7 63
2019-03-01 16:00:00 17.2 8 Oeste 18 Oeste 0 972.5 -1.5 52
2019-03-01 15:00:00 14.5 7 Oeste 17 Noroeste 0 973.2 -1.3 70
2019-03-01 14:00:00 13.3 8 Oeste 17 Oeste 0 973.7 -1.1 75
2019-03-01 13:00:00 11.8 8 Oeste 17 Oeste 0 974 -0.9 82
2019-03-01 12:00:00 8.7 8 Sudoeste 13 Oeste 0 974.5 -0.6 94
2019-03-01 11:00:00 7.9 3 Oeste 9 Oeste 0 974.8 -0.2 97
2019-03-01 10:00:00 6.8 2 Sur 5 Sur 0 974.9 -0.1 98
2019-03-01 09:00:00 5.7 0 Calma 6 Sudeste 0 975.1 0.1 99
2019-03-01 08:00:00 5.3 3 Sudeste 5 Sur 0 975 -0.1 98
2019-03-01 07:00:00 4.9 4 Sudeste 5 Sur 0 975 -0.4 98
2019-03-01 06:00:00 4.4 2 Sur 3 Sur 0 975 -0.7 98
2019-03-01 05:00:00 4 0 Calma 4 Sudeste 0 975.1 -0.7 98
2019-03-01 04:00:00 3.3 3 Sudeste 5 Sudeste 0 975.4 -0.7 98
2019-03-01 03:00:00 2.4 3 Sur 7 Sudeste 0 975.7 -0.8 94
2019-03-01 02:00:00 3 2 Sudoeste 6 Sudeste 0 975.8 -1 92
2019-03-01 01:00:00 4 4 Sudeste 7 Sudeste 0 976.1 -0.7 89
2019-03-01 00:00:00 4.9 3 Sur 5 Sur 0 976.5 -0.3 90
2019-02-28 23:00:00 5.7 3 Sudeste 5 Sudeste 0 976.8 0.3 90
2019-02-28 22:00:00 6.7 3 Sur 5 Sur 0 976.8 0.5 87
2019-02-28 21:00:00 8.2 3 Sur 8 Sudeste 0 976.8 0.6 82
2019-02-28 20:00:00 11 3 Sudeste 6 Noroeste 0 976.5 -0.2 72
2019-02-28 19:00:00 14.9 0 Calma 4 Nordeste 0 976.3 -1 61
2019-02-28 18:00:00 16.2 3 Norte 9 Este 0 976.2 -1.8 55
2019-02-28 17:00:00 16.7 5 Este 12 Norte 0 976.7 -2.2 52
2019-02-28 16:00:00 16.7 4 Nordeste 13 Nordeste 0 977.3 -2.2 52
2019-02-28 15:00:00 16.1 6 Nordeste 14 Norte 0 978 -1.7 50
2019-02-28 14:00:00 15.3 4 Noroeste 11 Noroeste 0 978.9 -0.7 52
2019-02-28 13:00:00 13.6 4 Este 13 Oeste 0 979.5 0.2 58
2019-02-28 12:00:00 11.9 5 Oeste 16 Oeste 0 979.7 0.4 66
2019-02-28 11:00:00 11 8 Sudoeste 14 Sudoeste 0 979.6 1 71
2019-02-28 10:00:00 8.6 5 Sur 13 Sur 0 979.3 0.8 83
2019-02-28 09:00:00 1.9 0 Calma 5 Sudeste 0 979.3 1 93
2019-02-28 08:00:00 0.5 2 Sur 8 Sudeste 0 978.6 1 93
2019-02-28 07:00:00 0.8 3 Sudoeste 5 Nordeste 0 978.5 0.5 93
2019-02-28 06:00:00 1.4 3 Este 6 Norte 0 978.3 0 94
2019-02-28 05:00:00 2.2 2 Noroeste 7 Norte 0 977.6 -0.6 94
2019-02-28 04:00:00 3 3 Norte 9 Sudeste 0 978 -0.4 92
2019-02-28 03:00:00 3.6 0 Calma 8 Sur 0 978.3 0 88
2019-02-28 02:00:00 5.5 3 Sur 12 Sur 0 978.2 0.2 87
2019-02-28 01:00:00 5.3 4 Sur 10 Sur 0 978.4 0.9 88
2019-02-28 00:00:00 6.2 4 Sur 18 Sudoeste 0 978.3 1.6 82
2019-02-27 23:00:00 6.1 7 Sudoeste 12 Sudoeste 0 978 1.7 88
2019-02-27 22:00:00 6.8 4 Sudoeste 11 Oeste 0 977.5 2.2 77
2019-02-27 21:00:00 9.1 11 Oeste 19 Sudoeste 0 976.7 2.1 66
2019-02-27 20:00:00 10.7 6 Sudoeste 21 Sudoeste 0 976.3 1.6 53
2019-02-27 19:00:00 13.8 13 Sudoeste 27 Sudoeste 0 975.3 0.8 42
2019-02-27 18:00:00 15.6 13 Sudoeste 32 Oeste 0 974.6 0.7 46
2019-02-27 17:00:00 15.9 19 Sudoeste 37 Sudoeste 0 974.7 0.9 51
2019-02-27 16:00:00 14.4 20 Oeste 45 Sudoeste 0 974.5 0.2 59
2019-02-27 15:00:00 16.7 17 Sudoeste 40 Sudoeste 0 973.9 -0.1 47
2019-02-27 14:00:00 18.2 15 Sudoeste 44 Sudoeste 0 973.8 -0.2 37
2019-02-27 13:00:00 17.1 18 Sudoeste 37 Oeste 0 974.3 1 38
2019-02-27 12:00:00 15.8 15 Sudoeste 28 Sudoeste 0 974 1 43
2019-02-27 11:00:00 14.2 16 Sudoeste 30 Oeste 0 974 2 49
2019-02-27 10:00:00 12.1 5 Sudoeste 15 Oeste 0 973.3 1.5 56
2019-02-27 09:00:00 5.1 3 Sur 6 Sudeste 0 973 1.6 78
2019-02-27 08:00:00 3.7 4 Sudeste 8 Sudeste 0 972 0.8 80
2019-02-27 07:00:00 3.7 3 Sur 8 Sudeste 0 971.8 0.4 80
2019-02-27 06:00:00 4.1 3 Noroeste 9 Norte 0 971.4 -0.5 77
2019-02-27 05:00:00 5.9 4 Sudeste 11 Sudeste 0 971.2 -0.9 71
2019-02-27 04:00:00 7.7 4 Sudeste 8 Sudoeste 0 971.4 -1 63
2019-02-27 03:00:00 12.1 5 Sudoeste 20 Sudeste 0 971.9 -0.3 46
2019-02-27 02:00:00 12.2 12 Sudeste 23 Sur 0 972.1 -0.1 48
2019-02-27 01:00:00 5.6 3 Sudeste 9 Sudeste 0 972.4 0 81
2019-02-27 00:00:00 7.8 4 Este 10 Sudeste 0 972.2 0 72
2019-02-26 23:00:00 9.6 7 Sudeste 11 Sudeste 0 972.2 0.4 67
2019-02-26 22:00:00 9.9 4 Sudeste 10 Sur 0 972.4 1.1 68
2019-02-26 21:00:00 11.3 3 Sudeste 8 Sudeste 0 972.2 1 66
2019-02-26 20:00:00 14.9 4 Sur 11 Sudeste 0 971.8 0.4 55
2019-02-26 19:00:00 20.1 3 Sudoeste 15 Oeste 0 971.3 -0.2 43
2019-02-26 18:00:00 22.9 8 Oeste 20 Oeste 0 971.2 -0.8 31
2019-02-26 17:00:00 23.6 7 Sudoeste 26 Oeste 0 971.4 -1.3 29
2019-02-26 16:00:00 23.7 7 Sur 24 Sudoeste 0 971.5 -1.9 30
2019-02-26 15:00:00 23 10 Sudoeste 24 Sur 0 972 -1.9 31
2019-02-26 14:00:00 21.9 9 Sur 33 Sudoeste 0 972.7 -1.6 33
2019-02-26 13:00:00 20.7 9 Sur 23 Oeste 0 973.4 -1 35
2019-02-26 12:00:00 15.1 3 Norte 7 Norte 0 973.9 -0.4 65
2019-02-26 11:00:00 10.2 3 Noroeste 6 Este 0 974.3 0.4 75
2019-02-26 10:00:00 6.1 0 Calma 3 Este 0 974.4 0.7 87
2019-02-26 09:00:00 2.2 0 Calma 4 Sur 0 974.3 0.3 92
2019-02-26 08:00:00 1.5 0 Calma 5 Sudeste 0 973.9 -0.1 94
2019-02-26 07:00:00 1.7 2 Sur 5 Sur 0 973.7 -0.6 93
2019-02-26 06:00:00 2.1 2 Sur 6 Oeste 0 974 -0.9 91
2019-02-26 05:00:00 2.3 3 Sudoeste 6 Sur 0 974 -1.2 93
2019-02-26 04:00:00 2.8 3 Sudeste 5 Sudeste 0 974.3 -1.1 92
2019-02-26 03:00:00 3.3 2 Sudoeste 6 Sur 0 974.9 -1 89
2019-02-26 02:00:00 4 3 Sur 6 Sur 0 975.2 -0.9 88
2019-02-26 01:00:00 4.9 4 Sudeste 8 Sudeste 0 975.4 -0.8 86
2019-02-26 00:00:00 5.8 2 Sudeste 8 Sudeste 0 975.9 -0.2 83
2019-02-25 23:00:00 7 3 Sur 8 Sudeste 0 976.1 0.2 80
2019-02-25 22:00:00 8.5 3 Sur 5 Sudoeste 0 976.2 0.5 75
2019-02-25 21:00:00 11.3 0 Calma 5 Nordeste 0 976.1 0.5 64
2019-02-25 20:00:00 15.1 4 Nordeste 17 Nordeste 0 975.9 0 53
2019-02-25 19:00:00 18.5 11 Nordeste 21 Nordeste 0 975.7 -0.5 41
2019-02-25 18:00:00 21.5 8 Nordeste 11 Este 0 975.6 -1.1 29
2019-02-25 17:00:00 22.9 4 Noroeste 12 Norte 0 975.9 -1.6 28
2019-02-25 16:00:00 22.5 6 Nordeste 15 Norte 0 976.2 -2.1 30
2019-02-25 15:00:00 22.3 5 Noroeste 15 Oeste 0 976.7 -2 31
2019-02-25 14:00:00 20.6 3 Nordeste 10 Oeste 0 977.5 -1.5 41
2019-02-25 13:00:00 17 4 Nordeste 7 Nordeste 0 978.3 -0.5 57
2019-02-25 12:00:00 12.3 5 Este 8 Nordeste 0 978.7 0.1 71
2019-02-25 11:00:00 8.4 3 Oeste 8 Noroeste 0 979 1.2 83
2019-02-25 10:00:00 6.2 0 Calma 5 Este 0 978.8 1.5 91
2019-02-25 09:00:00 2 3 Sudeste 5 Sudeste 0 978.6 1.4 97
2019-02-25 08:00:00 0.9 3 Noroeste 7 Sudeste 0 977.8 0.5 93
2019-02-25 07:00:00 1.6 3 Sur 6 Sudeste 0 977.3 -0.2 94
2019-02-25 06:00:00 2.4 2 Noroeste 4 Sur 0 977.2 -0.7 94
2019-02-25 05:00:00 3.1 2 Sur 4 Sudeste 0 977.3 -0.9 93
2019-02-25 04:00:00 3.9 2 Sur 7 Sudeste 0 977.5 -0.8 93
2019-02-25 03:00:00 4.3 3 Sur 9 Sudeste 0 977.9 -0.4 93
2019-02-25 02:00:00 4.6 3 Sudoeste 4 Sudeste 0 978.2 0 92
2019-02-25 01:00:00 5.2 3 Sur 8 Sudeste 0 978.3 0.6 91
2019-02-25 00:00:00 6.1 5 Sudeste 8 Sudeste 0 978.3 1 88
2019-02-24 23:00:00 7.4 4 Sur 5 Sur 0 978.2 1.3 85
2019-02-24 22:00:00 9 3 Sur 4 Sur 0 977.7 1.4 79
2019-02-24 21:00:00 11.5 2 Sudoeste 8 Este 0 977.3 1.4 71
2019-02-24 20:00:00 14.7 5 Este 9 Nordeste 0 976.9 0.9 64
2019-02-24 19:00:00 17.7 2 Norte 13 Nordeste 0 976.3 0.1 58
2019-02-24 18:00:00 19.9 3 Nordeste 10 Este 0 975.9 -0.9 43
2019-02-24 17:00:00 21.2 5 Norte 16 Noroeste 0 976 -1.3 42
2019-02-24 16:00:00 21.3 4 Norte 12 Nordeste 0 976.2 -2 42
2019-02-24 15:00:00 21.1 5 Nordeste 12 Norte 0 976.8 -1.7 40
2019-02-24 14:00:00 20.4 4 Noroeste 11 Nordeste 0 977.3 -1.2 44
2019-02-24 13:00:00 17.3 4 Norte 8 Nordeste 0 978.2 -0.4 55
2019-02-24 12:00:00 13.6 5 Nordeste 9 Nordeste 0 978.5 0.4 65
2019-02-24 11:00:00 9.9 4 Noroeste 6 Noroeste 0 978.5 1 78
2019-02-24 10:00:00 6.5 0 Calma 3 Este 0 978.6 1.4 89
2019-02-24 09:00:00 2.1 2 Este 4 Este 0 978.1 1.2 94
2019-02-24 08:00:00 1.7 2 Sudoeste 5 Sur 0 977.5 0.9 94
2019-02-24 07:00:00 1.8 3 Sur 8 Sudeste 0 977.2 1.1 93
2019-02-24 06:00:00 2.3 0 Calma 10 Sudeste 0 976.9 0.5 93
2019-02-24 05:00:00 2.5 0 Calma 5 Sudeste 0 976.6 -0.3 91
2019-02-24 04:00:00 3.1 4 Sur 6 Sudeste 0 976.1 -1.1 92
2019-02-24 03:00:00 3.4 4 Sudeste 7 Sudeste 0 976.4 -1 91
2019-02-24 02:00:00 4 2 Sur 6 Sudeste 0 976.9 -0.8 89
2019-02-24 01:00:00 5 3 Sudeste 9 Oeste 0 977.2 -0.9 87
2019-02-24 00:00:00 5.5 3 Sudoeste 8 Oeste 0 977.4 -0.6 89
2019-02-23 23:00:00 6.8 2 Sur 7 Sudeste 0 977.7 -0.4 83
2019-02-23 22:00:00 8.4 3 Sur 4 Sur 0 978.1 0.3 78
2019-02-23 21:00:00 10.5 0 Calma 9 Nordeste 0 978 0.6 72
2019-02-23 20:00:00 12.9 4 Nordeste 17 Nordeste 0 978.1 1.1 65
2019-02-23 19:00:00 15.3 8 Nordeste 15 Nordeste 0 977.8 0.6 59
2019-02-23 18:00:00 18 4 Nordeste 12 Norte 0 977.4 0.1 50
2019-02-23 17:00:00 19.2 5 Nordeste 10 Norte 0 977 -1.1 46
2019-02-23 16:00:00 18.8 5 Oeste 16 Oeste 0 977.2 -1 44
2019-02-23 15:00:00 18 5 Sudoeste 16 Sudoeste 0 977.3 -1 46
2019-02-23 14:00:00 17.3 3 Nordeste 17 Oeste 0 978.1 -0.6 54
2019-02-23 13:00:00 14.8 3 Noroeste 8 Noroeste 0 978.2 -0.6 61
2019-02-23 12:00:00 13.4 2 Sudoeste 8 Este 0 978.3 -0.4 59
2019-02-23 11:00:00 10.9 3 Norte 7 Sudeste 0 978.7 0.9 70
2019-02-23 10:00:00 7.5 4 Sudeste 8 Sudeste 0 978.8 1.8 74
2019-02-23 09:00:00 5.1 3 Sudoeste 7 Sudeste 0 978.7 2.1 82
2019-02-23 08:00:00 4.5 2 Este 7 Noroeste 0 977.8 1.6 82
2019-02-23 07:00:00 4.6 5 Sur 7 Sur 0 977 1.3 81
2019-02-23 06:00:00 4.8 4 Sudeste 6 Sur 0 976.6 0.9 79
2019-02-23 05:00:00 5.6 4 Sur 8 Sudeste 0 976.2 0.5 74
2019-02-23 04:00:00 6.4 3 Sudeste 6 Sudeste 0 975.7 0.3 71
2019-02-23 03:00:00 7.3 3 Sur 5 Sur 0 975.7 0.3 70
2019-02-23 02:00:00 8.6 3 Sudoeste 12 Sudoeste 0 975.7 0.2 65
2019-02-23 01:00:00 8.3 2 Noroeste 5 Oeste 0 975.4 0 62
2019-02-23 00:00:00 10.9 4 Sur 10 Sur 0 975.4 0.1 51
2019-02-22 23:00:00 11.7 4 Sur 12 Sur 0 975.5 0.4 47
2019-02-22 22:00:00 12.8 5 Sur 13 Sur 0 975.4 0.9 42
2019-02-22 21:00:00 13.6 5 Sur 14 Sudoeste 0 975.3 1.3 43
2019-02-22 20:00:00 14.1 5 Sur 14 Sudoeste 0 975.1 1.1 39
2019-02-22 19:00:00 16.8 6 Sudoeste 14 Sudoeste 0 974.5 0.4 31
2019-02-22 18:00:00 19 8 Sudoeste 21 Sudoeste 0 974 -0.3 27
2019-02-22 17:00:00 21.2 12 Sudoeste 30 Oeste 0 974 -1 24
2019-02-22 16:00:00 21.6 17 Sudoeste 31 Sudoeste 0 974.1 -1.3 23
2019-02-22 15:00:00 20.8 11 Sudoeste 29 Sudoeste 0 974.3 -1.4 25
2019-02-22 14:00:00 20.6 11 Sudoeste 29 Sudoeste 0 975 -1 26
2019-02-22 13:00:00 19.5 9 Sur 26 Sudoeste 0 975.4 -1 30
2019-02-22 12:00:00 17.5 8 Sur 20 Sudoeste 0 975.7 -0.2 35
2019-02-22 11:00:00 11.1 3 Oeste 5 Oeste 0 976 0.6 70
2019-02-22 10:00:00 5.3 3 Este 5 Noroeste 0 976.4 1.1 83
2019-02-22 09:00:00 2.6 3 Este 6 Este 0 975.9 0.9 91
2019-02-22 08:00:00 1.9 0 Calma 4 Este 0 975.4 0.6 90
2019-02-22 07:00:00 2.4 3 Sur 5 Noroeste 0 975.3 0 88
2019-02-22 06:00:00 3.2 0 Calma 6 Sur 0 975 -0.5 86
2019-02-22 05:00:00 3.5 2 Sur 9 Sudeste 0 974.8 -0.5 84
2019-02-22 04:00:00 4.5 3 Sur 8 Sudeste 0 975.3 0.4 82
2019-02-22 03:00:00 5.1 4 Sur 5 Sur 0 975.5 0.7 79
2019-02-22 02:00:00 6.3 3 Sur 5 Sudeste 0 975.3 0.7 74
2019-02-22 01:00:00 9.1 4 Sudeste 11 Sur 0 974.9 0.4 63
2019-02-22 00:00:00 9.8 5 Sudeste 10 Sur 0 974.8 1 62
2019-02-21 23:00:00 10 4 Sur 9 Sur 0 974.6 1.3 62
2019-02-21 22:00:00 9 4 Sur 8 Sur 0 974.5 2 69
2019-02-21 21:00:00 11.9 3 Sudoeste 12 Sur 0 973.8 2.1 55
2019-02-21 20:00:00 13.3 5 Sur 12 Sudoeste 0 973.3 2.1 49
2019-02-21 19:00:00 15.3 6 Sur 14 Sur 0 972.5 1.3 42
2019-02-21 18:00:00 16.6 3 Sur 21 Sur 0 971.7 0.2 44
2019-02-21 17:00:00 17.3 9 Sudoeste 25 Sur 0 971.2 -0.4 40
2019-02-21 16:00:00 19.2 13 Sur 31 Sur 0 971.2 -0.6 36
2019-02-21 15:00:00 17.1 15 Sudoeste 36 Sudoeste 0 971.5 -0.3 40
2019-02-21 14:00:00 17.8 13 Sur 38 Sudoeste 0 971.6 -0.2 41
2019-02-21 13:00:00 16 12 Sudoeste 25 Sudoeste 0 971.8 -0.1 49
2019-02-21 12:00:00 15.8 8 Sur 24 Sur 0 971.8 0.2 49
2019-02-21 11:00:00 11.6 3 Noroeste 7 Noroeste 0 971.8 0.9 70
2019-02-21 10:00:00 5.8 0 Calma 6 Sudeste 0 971.9 1.2 92
2019-02-21 09:00:00 0.9 0 Calma 4 Norte 0 971.6 1 96
2019-02-21 08:00:00 0.6 3 Sudeste 5 Sudeste 0 970.9 0.4 97
2019-02-21 07:00:00 0.3 0 Calma 4 Sur 0 970.7 0.2 94
2019-02-21 06:00:00 0.6 3 Sudeste 5 Sur 0 970.6 -0.2 93
2019-02-21 05:00:00 1.6 2 Oeste 18 Sur 0 970.5 -0.2 89
2019-02-21 04:00:00 2 5 Sur 15 Sudeste 0 970.5 -0.1 96
2019-02-21 03:00:00 2.3 2 Sudoeste 12 Sur 0 970.8 0.2 88
2019-02-21 02:00:00 3.1 6 Sur 10 Sur 0 970.7 -0.2 90
2019-02-21 01:00:00 4.9 3 Sudoeste 10 Sur 0 970.6 -0.2 85
2019-02-21 00:00:00 6.3 7 Sur 12 Sudeste 0 970.6 0.3 82
2019-02-20 23:00:00 5.1 4 Sur 8 Sur 0 970.9 1.2 84
2019-02-20 22:00:00 4.8 3 Sur 5 Sur 0 970.8 1.6 82
2019-02-20 21:00:00 5.9 4 Sur 7 Sur 0 970.3 1.6 79
2019-02-20 20:00:00 8.1 3 Sudeste 6 Oeste 0 969.7 1.1 70
2019-02-20 19:00:00 12.9 6 Sudoeste 17 Sudoeste 0 969.2 0.9 45
2019-02-20 18:00:00 14.8 9 Sudoeste 23 Sudoeste 0 968.7 0.2 43
2019-02-20 17:00:00 15 12 Sudoeste 27 Sudoeste 0 968.6 -0.7 41
2019-02-20 16:00:00 14.1 10 Sudoeste 21 Sudoeste 0 968.3 -1.5 48
2019-02-20 15:00:00 13.3 8 Sur 19 Sudoeste 0 968.5 -1.1 53
2019-02-20 14:00:00 10.6 5 Sudoeste 12 Sudoeste 0 969.3 0.1 66
2019-02-20 13:00:00 8.1 4 Noroeste 10 Norte 0 969.8 0.9 82
2019-02-20 12:00:00 2.6 2 Nordeste 6 Nordeste 0 969.6 1.2 96
2019-02-20 11:00:00 -0.2 2 Este 5 Sudeste 0 969.2 1.1 96
2019-02-20 10:00:00 -1 3 Noroeste 7 Noroeste 0 968.9 0.9 94
2019-02-20 09:00:00 -2 2 Noroeste 4 Este 0 968.4 0.6 96
2019-02-20 08:00:00 -2.7 2 Sudoeste 5 Noroeste 0 968.1 0.5 95
2019-02-20 07:00:00 -2.3 3 Noroeste 6 Noroeste 0 968 0.4 95
2019-02-20 06:00:00 -1.6 0 Calma 5 Sudeste 0 967.8 0.2 95
2019-02-20 05:00:00 -1.2 0 Calma 4 Noroeste 0 967.6 -0.1 96
2019-02-20 04:00:00 -1.2 3 Oeste 6 Noroeste 0 967.6 -0.2 96
2019-02-20 03:00:00 -0.2 0 Calma 4 Noroeste 0 967.6 0 94
2019-02-20 02:00:00 0.1 0 Calma 6 Sudeste 0 967.7 0 95
2019-02-20 01:00:00 0.1 2 Sudeste 6 Sudeste 0 967.8 0.5 94
2019-02-20 00:00:00 0.4 2 Sur 7 Sudeste 0 967.6 0.6 93